createdAt,value
2023-05-10T00:00:36.663Z,54.40
2023-05-10T00:02:37.865Z,54.29
2023-05-10T00:04:30.950Z,54.37
2023-05-10T00:06:38.517Z,54.45
2023-05-10T00:08:33.051Z,54.46
2023-05-10T00:10:26.384Z,54.46
2023-05-10T00:12:19.544Z,54.39
2023-05-10T00:14:12.904Z,54.53
2023-05-10T00:16:06.639Z,54.71
2023-05-10T00:18:00.476Z,54.63
2023-05-10T00:19:53.890Z,54.83
2023-05-10T00:21:46.706Z,54.60
2023-05-10T00:23:39.581Z,55.04
2023-05-10T00:25:32.426Z,54.88
2023-05-10T00:27:25.424Z,54.85
2023-05-10T00:29:18.322Z,54.97
2023-05-10T00:31:11.275Z,55.36
2023-05-10T00:33:04.300Z,55.36
2023-05-10T00:34:57.378Z,55.40
2023-05-10T00:36:50.218Z,55.37
2023-05-10T00:38:43.066Z,55.39
2023-05-10T00:40:38.079Z,55.72
2023-05-10T00:42:32.445Z,55.72
2023-05-10T00:44:25.491Z,55.87
2023-05-10T00:46:18.803Z,55.95
2023-05-10T00:48:12.006Z,55.94
2023-05-10T00:50:06.494Z,56.03
2023-05-10T00:51:59.542Z,56.03
2023-05-10T00:53:52.739Z,56.15
2023-05-10T00:55:45.953Z,56.24
2023-05-10T00:57:39.620Z,56.30
2023-05-10T00:59:33.283Z,56.42
2023-05-10T01:01:26.573Z,56.31
2023-05-10T01:03:19.567Z,56.45
2023-05-10T01:05:13.273Z,56.63
2023-05-10T01:07:06.608Z,56.56
2023-05-10T01:08:59.460Z,56.59
2023-05-10T01:10:53.623Z,56.71
2023-05-10T01:12:48.526Z,56.73
2023-05-10T01:14:41.787Z,56.66
2023-05-10T01:16:43.274Z,56.82
2023-05-10T01:18:39.283Z,56.80
2023-05-10T01:20:39.307Z,56.74
2023-05-10T01:22:58.666Z,56.80
2023-05-10T01:25:09.811Z,56.99
2023-05-10T01:27:22.415Z,56.81
2023-05-10T01:29:26.422Z,56.86
2023-05-10T01:31:28.628Z,56.84
2023-05-10T01:33:42.776Z,56.72
2023-05-10T01:35:46.643Z,56.76
2023-05-10T01:37:58.125Z,56.70
2023-05-10T01:40:09.292Z,56.97
2023-05-10T01:42:05.622Z,57.09
2023-05-10T01:44:19.776Z,57.20
2023-05-10T01:46:18.919Z,57.11
2023-05-10T01:48:15.143Z,57.11
2023-05-10T01:50:16.345Z,57.17
2023-05-10T01:52:13.586Z,57.18
2023-05-10T01:54:08.259Z,57.22
2023-05-10T01:56:03.870Z,57.42
2023-05-10T01:58:10.867Z,57.37
2023-05-10T02:00:05.626Z,57.42
2023-05-10T02:02:09.212Z,57.51
2023-05-10T02:04:04.409Z,57.64
2023-05-10T02:05:58.511Z,57.60
2023-05-10T02:07:53.099Z,57.80
2023-05-10T02:09:50.039Z,57.86
2023-05-10T02:11:45.244Z,58.05
2023-05-10T02:13:40.545Z,57.98
2023-05-10T02:15:35.238Z,58.13
2023-05-10T02:17:29.810Z,58.17
2023-05-10T02:19:24.211Z,58.34
2023-05-10T02:21:19.100Z,58.46
2023-05-10T02:23:12.767Z,58.52
2023-05-10T02:25:07.908Z,58.85
2023-05-10T02:27:02.939Z,58.77
2023-05-10T02:28:58.277Z,59.15
2023-05-10T02:30:53.096Z,59.11
2023-05-10T02:32:47.549Z,59.05
2023-05-10T02:34:41.726Z,59.30
2023-05-10T02:36:35.385Z,59.68
2023-05-10T02:38:29.269Z,59.41
2023-05-10T02:40:26.807Z,59.55
2023-05-10T02:42:26.211Z,59.57
2023-05-10T02:44:21.943Z,59.83
2023-05-10T02:46:14.896Z,59.87
2023-05-10T02:48:08.094Z,60.02
2023-05-10T02:50:01.480Z,59.85
2023-05-10T02:52:00.266Z,59.95
2023-05-10T02:53:56.296Z,60.15
2023-05-10T02:55:53.722Z,60.10
2023-05-10T02:57:59.800Z,60.21
2023-05-10T02:59:52.951Z,60.50
2023-05-10T03:01:45.846Z,60.44
2023-05-10T03:03:39.474Z,60.39
2023-05-10T03:05:32.639Z,60.48
2023-05-10T03:07:27.605Z,60.65
2023-05-10T03:09:22.203Z,60.74
2023-05-10T03:11:40.132Z,60.73
2023-05-10T03:13:44.959Z,61.17
2023-05-10T03:15:52.193Z,61.16
2023-05-10T03:18:03.407Z,61.28
2023-05-10T03:19:59.438Z,61.27
2023-05-10T03:21:55.091Z,61.63
2023-05-10T03:23:57.724Z,61.52
2023-05-10T03:25:51.830Z,61.53
2023-05-10T03:27:46.281Z,61.62
2023-05-10T03:29:40.676Z,61.60
2023-05-10T03:31:33.940Z,61.58
2023-05-10T03:33:27.176Z,61.52
2023-05-10T03:35:20.226Z,61.58
2023-05-10T03:37:13.074Z,61.64
2023-05-10T03:39:06.024Z,61.64
2023-05-10T03:40:59.622Z,61.56
2023-05-10T03:42:52.528Z,61.82
2023-05-10T03:44:45.386Z,61.92
2023-05-10T03:46:38.373Z,61.78
2023-05-10T03:48:31.783Z,61.79
2023-05-10T03:50:25.041Z,61.68
2023-05-10T03:52:17.991Z,61.63
2023-05-10T03:54:11.353Z,61.71
2023-05-10T03:56:04.397Z,61.51
2023-05-10T03:57:57.443Z,61.65
2023-05-10T03:59:51.372Z,61.69
2023-05-10T04:01:44.275Z,61.49
2023-05-10T04:03:37.837Z,61.49
2023-05-10T04:05:31.566Z,61.49
2023-05-10T04:07:24.450Z,61.23
2023-05-10T04:09:18.220Z,61.20
2023-05-10T04:11:12.795Z,61.22
2023-05-10T04:13:05.718Z,61.02
2023-05-10T04:14:58.695Z,61.01
2023-05-10T04:16:51.726Z,60.81
2023-05-10T04:18:44.588Z,60.68
2023-05-10T04:20:37.659Z,60.59
2023-05-10T04:22:30.597Z,60.58
2023-05-10T04:24:23.438Z,60.51
2023-05-10T04:26:16.280Z,60.37
2023-05-10T04:28:09.739Z,60.22
2023-05-10T04:30:03.304Z,60.08
2023-05-10T04:31:57.684Z,60.04
2023-05-10T04:33:51.148Z,59.94
2023-05-10T04:35:43.987Z,59.77
2023-05-10T04:37:37.682Z,59.80
2023-05-10T04:39:30.496Z,59.78
2023-05-10T04:41:23.349Z,59.70
2023-05-10T04:43:16.188Z,59.69
2023-05-10T04:45:10.753Z,59.63
2023-05-10T04:47:04.247Z,59.49
2023-05-10T04:48:57.083Z,59.57
2023-05-10T04:50:49.929Z,59.54
2023-05-10T04:52:42.770Z,59.43
2023-05-10T04:54:35.927Z,59.19
2023-05-10T04:56:28.768Z,59.24
2023-05-10T04:58:22.027Z,59.38
2023-05-10T05:00:15.709Z,59.18
2023-05-10T05:02:08.967Z,58.99
2023-05-10T05:04:02.566Z,58.94
2023-05-10T05:05:55.455Z,58.61
2023-05-10T05:07:48.404Z,58.53
2023-05-10T05:09:41.258Z,58.50
2023-05-10T05:11:34.200Z,57.94
2023-05-10T05:13:27.214Z,57.84
2023-05-10T05:15:20.835Z,57.84
2023-05-10T05:17:14.280Z,57.38
2023-05-10T05:19:07.323Z,57.27
2023-05-10T05:21:00.381Z,57.77
2023-05-10T05:22:53.321Z,57.74
2023-05-10T05:24:46.227Z,57.02
2023-05-10T05:26:39.524Z,56.99
2023-05-10T05:28:35.140Z,56.82
2023-05-10T05:30:28.093Z,56.83
2023-05-10T05:32:20.968Z,59.14
2023-05-10T05:34:13.789Z,57.35
2023-05-10T05:36:07.320Z,56.53
2023-05-10T05:38:00.923Z,57.35
2023-05-10T05:39:55.492Z,56.67
2023-05-10T05:41:48.433Z,55.65
2023-05-10T05:43:41.287Z,55.01
2023-05-10T05:45:34.140Z,54.31
2023-05-10T05:47:27.091Z,53.92
2023-05-10T05:49:20.199Z,53.85
2023-05-10T05:51:13.077Z,54.08
2023-05-10T05:53:06.015Z,53.03
2023-05-10T05:54:58.867Z,52.39
2023-05-10T05:56:51.817Z,52.35
2023-05-10T05:58:45.891Z,51.53
2023-05-10T06:00:38.753Z,51.75
2023-05-10T06:02:31.818Z,51.55
2023-05-10T06:04:25.078Z,50.51
2023-05-10T06:06:17.997Z,50.18
2023-05-10T06:08:11.363Z,49.80
2023-05-10T06:10:04.822Z,50.13
2023-05-10T06:11:58.288Z,49.49
2023-05-10T06:13:52.095Z,48.83
2023-05-10T06:15:45.703Z,48.83
2023-05-10T06:17:40.736Z,48.95
2023-05-10T06:19:35.106Z,49.07
2023-05-10T06:21:28.458Z,49.11
2023-05-10T06:23:21.957Z,48.13
2023-05-10T06:25:16.159Z,48.55
2023-05-10T06:27:09.571Z,48.88
2023-05-10T06:29:02.586Z,48.34
2023-05-10T06:30:55.432Z,47.85
2023-05-10T06:32:48.344Z,48.83
2023-05-10T06:34:41.532Z,47.62
2023-05-10T06:36:34.990Z,48.18
2023-05-10T06:38:28.552Z,47.89
2023-05-10T06:40:21.890Z,48.15
2023-05-10T06:42:14.774Z,46.62
2023-05-10T06:44:11.911Z,45.91
2023-05-10T06:46:04.781Z,46.01
2023-05-10T06:48:00.884Z,46.07
2023-05-10T06:50:05.556Z,44.95
2023-05-10T06:51:58.549Z,44.22
2023-05-10T06:53:51.494Z,44.71
2023-05-10T06:55:44.845Z,44.48
2023-05-10T06:57:38.315Z,44.38
2023-05-10T06:59:31.454Z,43.66
2023-05-10T07:01:24.523Z,43.45
2023-05-10T07:03:17.745Z,43.74
2023-05-10T07:05:10.612Z,43.52
2023-05-10T07:07:03.752Z,43.17
2023-05-10T07:08:56.641Z,43.48
2023-05-10T07:10:49.899Z,43.14
2023-05-10T07:12:43.298Z,42.11
2023-05-10T07:14:36.689Z,42.22
2023-05-10T07:16:29.817Z,42.34
2023-05-10T07:18:22.851Z,41.44
2023-05-10T07:20:16.153Z,40.60
2023-05-10T07:22:09.023Z,41.19
2023-05-10T07:24:02.656Z,41.41
2023-05-10T07:25:55.718Z,41.48
2023-05-10T07:27:49.759Z,40.23
2023-05-10T07:29:43.272Z,40.14
2023-05-10T07:31:36.213Z,41.22
2023-05-10T07:33:29.147Z,40.64
2023-05-10T07:35:21.984Z,39.88
2023-05-10T07:37:14.794Z,39.74
2023-05-10T07:39:08.185Z,38.97
2023-05-10T07:41:01.010Z,38.73
2023-05-10T07:42:54.014Z,38.81
2023-05-10T07:44:46.843Z,38.77
2023-05-10T07:46:39.929Z,39.98
2023-05-10T07:48:32.871Z,38.78
2023-05-10T07:50:25.666Z,38.83
2023-05-10T07:52:20.615Z,38.39
2023-05-10T07:54:15.355Z,38.11
2023-05-10T07:56:30.927Z,38.78
2023-05-10T07:58:23.878Z,38.96
2023-05-10T08:00:19.506Z,38.96
2023-05-10T08:02:12.317Z,38.04
2023-05-10T08:04:05.470Z,36.63
2023-05-10T08:05:58.435Z,37.47
2023-05-10T08:07:51.284Z,37.98
2023-05-10T08:09:44.229Z,36.92
2023-05-10T08:11:37.079Z,37.58
2023-05-10T08:13:29.933Z,36.54
2023-05-10T08:15:22.871Z,36.32
2023-05-10T08:17:15.732Z,36.20
2023-05-10T08:19:08.525Z,36.42
2023-05-10T08:21:02.103Z,36.66
2023-05-10T08:22:55.072Z,36.86
2023-05-10T08:24:47.895Z,36.55
2023-05-10T08:26:41.092Z,35.34
2023-05-10T08:28:34.019Z,36.22
2023-05-10T08:30:27.068Z,35.77
2023-05-10T08:32:19.916Z,35.47
2023-05-10T08:34:12.763Z,35.62
2023-05-10T08:36:05.707Z,35.00
2023-05-10T08:37:58.657Z,34.12
2023-05-10T08:39:51.507Z,34.88
2023-05-10T08:41:46.302Z,34.86
2023-05-10T08:43:40.104Z,34.73
2023-05-10T08:45:34.588Z,35.74
2023-05-10T08:47:28.995Z,35.97
2023-05-10T08:49:22.801Z,33.95
2023-05-10T08:51:18.969Z,33.10
2023-05-10T08:53:14.187Z,33.36
2023-05-10T08:55:07.385Z,32.75
2023-05-10T08:57:00.634Z,32.57
2023-05-10T08:58:53.678Z,32.83
2023-05-10T09:00:46.962Z,32.92
2023-05-10T09:02:40.412Z,32.44
2023-05-10T09:04:33.948Z,31.98
2023-05-10T09:06:27.486Z,31.54
2023-05-10T09:08:21.293Z,32.19
2023-05-10T09:10:14.651Z,32.70
2023-05-10T09:12:12.001Z,31.69
2023-05-10T09:14:05.565Z,31.32
2023-05-10T09:16:06.985Z,31.23
2023-05-10T09:18:06.795Z,31.68
2023-05-10T09:20:01.255Z,30.60
2023-05-10T09:21:54.151Z,29.66
2023-05-10T09:23:48.622Z,30.41
2023-05-10T09:25:44.861Z,30.23
2023-05-10T09:27:39.833Z,31.30
2023-05-10T09:29:44.714Z,30.27
2023-05-10T09:31:52.570Z,30.93
2023-05-10T09:33:50.564Z,30.92
2023-05-10T09:35:44.011Z,32.15
2023-05-10T09:37:37.274Z,32.38
2023-05-10T09:39:35.019Z,29.73
2023-05-10T09:41:29.215Z,29.90
2023-05-10T09:43:22.251Z,29.58
2023-05-10T09:45:15.414Z,31.07
2023-05-10T09:47:08.780Z,31.14
2023-05-10T09:49:01.617Z,30.38
2023-05-10T09:50:58.549Z,29.70
2023-05-10T09:53:01.124Z,28.79
2023-05-10T09:54:55.040Z,29.06
2023-05-10T09:56:48.015Z,28.93
2023-05-10T09:58:41.501Z,28.45
2023-05-10T10:00:39.176Z,28.05
2023-05-10T10:02:32.980Z,27.97
2023-05-10T10:04:26.777Z,27.66
2023-05-10T10:06:29.639Z,26.87
2023-05-10T10:08:23.472Z,26.81
2023-05-10T10:10:16.818Z,27.75
2023-05-10T10:12:09.709Z,28.08
2023-05-10T10:14:03.259Z,28.64
2023-05-10T10:15:56.362Z,27.89
2023-05-10T10:17:50.762Z,28.24
2023-05-10T10:19:44.824Z,27.84
2023-05-10T10:21:37.703Z,28.21
2023-05-10T10:23:30.485Z,28.96
2023-05-10T10:25:26.603Z,29.44
2023-05-10T10:27:29.667Z,28.22
2023-05-10T10:29:37.519Z,28.24
2023-05-10T10:31:46.289Z,28.01
2023-05-10T10:33:48.475Z,27.33
2023-05-10T10:35:41.861Z,27.19
2023-05-10T10:37:46.433Z,27.21
2023-05-10T10:39:39.297Z,28.02
2023-05-10T10:41:35.588Z,26.83
2023-05-10T10:43:29.637Z,28.58
2023-05-10T10:45:23.558Z,28.76
2023-05-10T10:47:26.029Z,27.70
2023-05-10T10:49:19.225Z,27.85
2023-05-10T10:51:20.721Z,28.13
2023-05-10T10:53:16.618Z,27.67
2023-05-10T10:55:20.831Z,27.23
2023-05-10T10:57:15.515Z,27.97
2023-05-10T10:59:09.976Z,28.53
2023-05-10T11:01:12.162Z,28.33
2023-05-10T11:03:07.854Z,28.38
2023-05-10T11:05:01.922Z,28.31
2023-05-10T11:07:18.636Z,27.69
2023-05-10T11:09:13.508Z,26.99
2023-05-10T11:11:13.287Z,27.01
2023-05-10T11:13:08.026Z,28.03
2023-05-10T11:15:00.868Z,28.07
2023-05-10T11:16:53.914Z,28.76
2023-05-10T11:19:08.628Z,29.48
2023-05-10T11:21:06.295Z,29.65
2023-05-10T11:22:59.084Z,29.25
2023-05-10T11:24:59.620Z,29.83
2023-05-10T11:26:53.084Z,29.66
2023-05-10T11:28:48.210Z,30.15
2023-05-10T11:30:44.185Z,29.03
2023-05-10T11:32:40.765Z,27.69
2023-05-10T11:34:36.581Z,28.39
2023-05-10T11:36:33.739Z,28.55
2023-05-10T11:38:26.745Z,28.44
2023-05-10T11:40:20.252Z,28.38
2023-05-10T11:42:16.111Z,28.42
2023-05-10T11:44:10.597Z,29.49
2023-05-10T11:46:04.141Z,28.52
2023-05-10T11:47:59.001Z,29.15
2023-05-10T11:49:52.812Z,28.52
2023-05-10T11:51:45.774Z,28.27
2023-05-10T11:53:39.353Z,29.14
2023-05-10T11:55:34.698Z,29.20
2023-05-10T11:57:29.604Z,29.08
2023-05-10T11:59:22.412Z,28.88
2023-05-10T12:01:15.350Z,28.65
2023-05-10T12:03:08.389Z,30.07
2023-05-10T12:05:01.587Z,31.24
2023-05-10T12:06:54.671Z,29.58
2023-05-10T12:08:49.359Z,29.65
2023-05-10T12:10:42.632Z,29.12
2023-05-10T12:12:45.569Z,28.71
2023-05-10T12:14:38.394Z,29.06
2023-05-10T12:16:31.589Z,29.31
2023-05-10T12:18:26.455Z,29.18
2023-05-10T12:20:23.497Z,29.31
2023-05-10T12:22:16.375Z,30.39
2023-05-10T12:24:09.341Z,29.79
2023-05-10T12:26:06.475Z,29.96
2023-05-10T12:30:11.465Z,30.90
2023-05-10T12:32:04.520Z,30.39
2023-05-10T12:33:57.635Z,31.19
2023-05-10T12:35:53.176Z,31.57
2023-05-10T12:37:46.299Z,31.77
2023-05-10T12:39:44.070Z,30.99
2023-05-10T12:41:36.909Z,31.07
2023-05-10T12:43:30.610Z,30.68
2023-05-10T12:45:23.774Z,31.36
2023-05-10T12:47:16.784Z,31.21
2023-05-10T12:49:10.106Z,32.20
2023-05-10T12:51:04.611Z,30.30
2023-05-10T12:52:57.496Z,30.91
2023-05-10T12:54:50.517Z,31.30
2023-05-10T12:56:44.583Z,30.68
2023-05-10T12:58:37.424Z,32.10
2023-05-10T13:00:30.263Z,32.08
2023-05-10T13:02:24.219Z,31.02
2023-05-10T13:04:17.846Z,32.35
2023-05-10T13:06:11.066Z,31.56
2023-05-10T13:08:04.019Z,31.45
2023-05-10T13:09:56.859Z,31.26
2023-05-10T13:11:50.320Z,31.78
2023-05-10T13:13:43.164Z,31.16
2023-05-10T13:15:36.315Z,31.81
2023-05-10T13:17:30.357Z,31.95
2023-05-10T13:19:24.069Z,31.16
2023-05-10T13:21:17.830Z,31.42
2023-05-10T13:23:11.181Z,31.43
2023-05-10T13:25:04.334Z,31.23
2023-05-10T13:26:57.287Z,30.86
2023-05-10T13:28:50.946Z,31.80
2023-05-10T13:30:43.997Z,31.87
2023-05-10T13:32:37.287Z,31.81
2023-05-10T13:34:30.302Z,31.29
2023-05-10T13:36:23.984Z,31.57
2023-05-10T13:38:17.577Z,31.29
2023-05-10T13:40:12.761Z,32.02
2023-05-10T13:42:07.304Z,32.27
2023-05-10T13:44:05.799Z,32.51
2023-05-10T13:45:58.771Z,33.74
2023-05-10T13:47:53.319Z,33.94
2023-05-10T13:49:46.254Z,32.64
2023-05-10T13:51:39.156Z,33.04
2023-05-10T13:53:32.281Z,32.30
2023-05-10T13:56:21.030Z,33.50
2023-05-10T13:59:05.049Z,32.15
2023-05-10T14:00:58.207Z,32.27
2023-05-10T14:02:51.460Z,32.52
2023-05-10T14:04:44.763Z,32.19
2023-05-10T14:06:38.104Z,32.18
2023-05-10T14:08:31.268Z,33.19
2023-05-10T14:10:24.308Z,31.93
2023-05-10T14:12:17.907Z,31.51
2023-05-10T14:14:11.337Z,32.55
2023-05-10T14:16:04.495Z,32.40
2023-05-10T14:17:57.371Z,33.35
2023-05-10T14:19:50.393Z,33.55
2023-05-10T14:21:44.250Z,32.78
2023-05-10T14:23:37.199Z,32.08
2023-05-10T14:25:30.253Z,33.07
2023-05-10T14:27:23.230Z,33.72
2023-05-10T14:29:16.249Z,33.19
2023-05-10T14:31:09.097Z,34.19
2023-05-10T14:33:04.135Z,33.95
2023-05-10T14:34:57.161Z,34.26
2023-05-10T14:36:51.111Z,33.69
2023-05-10T14:38:44.266Z,33.93
2023-05-10T14:40:37.417Z,34.29
2023-05-10T14:42:30.384Z,34.44
2023-05-10T14:44:23.415Z,34.90
2023-05-10T14:46:17.141Z,35.50
2023-05-10T14:48:13.304Z,35.27
2023-05-10T14:50:07.130Z,35.83
2023-05-10T14:52:00.239Z,35.95
2023-05-10T14:54:49.393Z,35.28
2023-05-10T14:57:01.802Z,34.55
2023-05-10T14:58:55.187Z,34.35
2023-05-10T15:00:48.816Z,35.23
2023-05-10T15:02:42.614Z,34.90
2023-05-10T15:04:37.213Z,34.16
2023-05-10T15:06:35.668Z,35.59
2023-05-10T15:08:32.190Z,34.07
2023-05-10T15:10:28.501Z,34.17
2023-05-10T15:12:21.556Z,33.71
2023-05-10T15:14:14.398Z,34.54
2023-05-10T15:16:07.373Z,33.56
2023-05-10T15:18:00.355Z,33.57
2023-05-10T15:19:53.516Z,34.50
2023-05-10T15:21:47.120Z,33.88
2023-05-10T15:23:39.993Z,34.45
2023-05-10T15:25:36.017Z,34.78
2023-05-10T15:27:29.034Z,34.67
2023-05-10T15:29:22.088Z,34.88
2023-05-10T15:31:14.975Z,35.29
2023-05-10T15:33:08.952Z,34.38
2023-05-10T15:35:02.361Z,34.17
2023-05-10T15:36:55.508Z,34.88
2023-05-10T15:38:48.564Z,34.66
2023-05-10T15:40:41.615Z,34.59
2023-05-10T15:42:34.802Z,35.53
2023-05-10T15:44:27.921Z,34.97
2023-05-10T15:46:20.909Z,34.29
2023-05-10T15:48:13.970Z,34.68
2023-05-10T15:50:08.522Z,34.87
2023-05-10T15:52:01.450Z,35.79
2023-05-10T15:54:05.973Z,36.00
2023-05-10T15:56:00.466Z,36.40
2023-05-10T15:57:53.402Z,37.11
2023-05-10T15:59:46.349Z,36.54
2023-05-10T16:01:39.311Z,36.41
2023-05-10T16:03:36.003Z,35.95
2023-05-10T16:05:33.774Z,35.98
2023-05-10T16:07:26.855Z,36.31
2023-05-10T16:09:19.906Z,35.87
2023-05-10T16:11:12.927Z,36.32
2023-05-10T16:13:05.911Z,36.51
2023-05-10T16:14:58.846Z,36.27
2023-05-10T16:16:52.464Z,36.09
2023-05-10T16:18:45.859Z,36.18
2023-05-10T16:20:39.024Z,36.20
2023-05-10T16:22:31.873Z,36.00
2023-05-10T16:24:26.550Z,36.00
2023-05-10T16:26:19.406Z,35.68
2023-05-10T16:28:12.248Z,36.21
2023-05-10T16:30:06.018Z,36.56
2023-05-10T16:31:58.861Z,36.72
2023-05-10T16:33:51.733Z,36.04
2023-05-10T16:35:45.077Z,35.65
2023-05-10T16:37:39.612Z,36.25
2023-05-10T16:39:32.933Z,36.68
2023-05-10T16:41:26.533Z,36.63
2023-05-10T16:43:19.385Z,36.38
2023-05-10T16:45:12.597Z,36.05
2023-05-10T16:47:05.514Z,36.38
2023-05-10T16:48:59.891Z,36.96
2023-05-10T16:50:52.871Z,37.13
2023-05-10T16:52:45.662Z,37.11
2023-05-10T16:54:38.536Z,37.19
2023-05-10T16:56:31.556Z,36.55
2023-05-10T16:58:24.543Z,36.46
2023-05-10T17:00:17.801Z,36.29
2023-05-10T17:02:11.225Z,36.80
2023-05-10T17:04:04.612Z,37.15
2023-05-10T17:05:59.120Z,37.28
2023-05-10T17:07:52.043Z,37.18
2023-05-10T17:09:45.195Z,37.51
2023-05-10T17:11:38.044Z,37.80
2023-05-10T17:13:32.012Z,37.24
2023-05-10T17:15:24.862Z,37.14
2023-05-10T17:17:17.809Z,36.97
2023-05-10T17:19:10.702Z,37.02
2023-05-10T17:21:04.218Z,37.51
2023-05-10T17:22:57.142Z,37.43
2023-05-10T17:24:50.421Z,37.74
2023-05-10T17:26:43.474Z,37.98
2023-05-10T17:28:36.329Z,37.93
2023-05-10T17:30:32.653Z,37.86
2023-05-10T17:32:26.354Z,38.02
2023-05-10T17:34:19.325Z,38.07
2023-05-10T17:36:12.305Z,38.08
2023-05-10T17:38:05.163Z,38.25
2023-05-10T17:39:58.031Z,38.47
2023-05-10T17:41:50.845Z,38.62
2023-05-10T17:43:43.689Z,38.65
2023-05-10T17:45:36.629Z,38.93
2023-05-10T17:47:29.677Z,39.10
2023-05-10T17:49:22.635Z,39.74
2023-05-10T17:51:15.435Z,39.23
2023-05-10T17:53:08.431Z,39.07
2023-05-10T17:55:01.599Z,39.31
2023-05-10T17:56:54.528Z,39.51
2023-05-10T17:58:48.864Z,39.84
2023-05-10T18:00:43.492Z,40.03
2023-05-10T18:02:37.099Z,39.82
2023-05-10T18:04:30.264Z,40.00
2023-05-10T18:06:23.707Z,40.09
2023-05-10T18:08:22.414Z,40.49
2023-05-10T18:10:15.509Z,40.41
2023-05-10T18:12:08.285Z,40.60
2023-05-10T18:14:01.200Z,40.56
2023-05-10T18:15:54.349Z,40.81
2023-05-10T18:17:47.241Z,41.06
2023-05-10T18:19:40.578Z,41.03
2023-05-10T18:21:33.403Z,41.27
2023-05-10T18:23:26.554Z,41.33
2023-05-10T18:25:19.590Z,41.13
2023-05-10T18:27:12.668Z,41.76
2023-05-10T18:29:06.556Z,41.45
2023-05-10T18:30:59.703Z,41.68
2023-05-10T18:32:52.826Z,41.79
2023-05-10T18:34:45.996Z,41.88
2023-05-10T18:36:38.845Z,42.04
2023-05-10T18:38:31.679Z,42.31
2023-05-10T18:40:26.985Z,42.86
2023-05-10T18:42:20.744Z,42.71
2023-05-10T18:44:13.690Z,42.98
2023-05-10T18:46:06.780Z,43.10
2023-05-10T18:47:59.744Z,43.37
2023-05-10T18:49:52.919Z,43.43
2023-05-10T18:51:46.117Z,43.63
2023-05-10T18:53:38.952Z,43.75
2023-05-10T18:55:31.753Z,44.01
2023-05-10T18:57:24.638Z,43.96
2023-05-10T18:59:17.587Z,44.07
2023-05-10T19:01:10.563Z,44.18
2023-05-10T19:03:04.015Z,44.49
2023-05-10T19:04:59.750Z,44.54
2023-05-10T19:06:53.066Z,44.50
2023-05-10T19:08:45.887Z,44.75
2023-05-10T19:10:38.857Z,44.94
2023-05-10T19:12:31.726Z,44.86
2023-05-10T19:14:25.777Z,45.19
2023-05-10T19:16:18.894Z,45.26
2023-05-10T19:18:13.828Z,45.13
2023-05-10T19:20:08.105Z,45.22
2023-05-10T19:22:03.921Z,45.22
2023-05-10T19:23:59.228Z,45.15
2023-05-10T19:25:52.237Z,45.25
2023-05-10T19:27:45.227Z,45.19
2023-05-10T19:29:38.379Z,45.26
2023-05-10T19:31:32.124Z,45.19
2023-05-10T19:33:25.089Z,45.27
2023-05-10T19:35:18.569Z,45.44
2023-05-10T19:37:12.472Z,45.33
2023-05-10T19:39:05.472Z,45.46
2023-05-10T19:40:59.340Z,45.51
2023-05-10T19:42:52.391Z,45.42
2023-05-10T19:44:46.619Z,45.52
2023-05-10T19:46:39.690Z,45.63
2023-05-10T19:48:32.779Z,45.53
2023-05-10T19:50:26.336Z,45.62
2023-05-10T19:52:19.178Z,45.69
2023-05-10T19:54:12.022Z,45.75
2023-05-10T19:56:07.431Z,45.80
2023-05-10T19:58:03.153Z,45.90
2023-05-10T19:59:55.989Z,45.90
2023-05-10T20:01:48.833Z,45.80
2023-05-10T20:03:41.699Z,46.00
2023-05-10T20:05:34.633Z,45.97
2023-05-10T20:07:27.474Z,45.97
2023-05-10T20:09:20.726Z,46.20
2023-05-10T20:11:13.581Z,46.41
2023-05-10T20:13:06.424Z,46.55
2023-05-10T20:14:59.472Z,46.58
2023-05-10T20:16:52.587Z,46.79
2023-05-10T20:18:46.793Z,46.97
2023-05-10T20:20:39.916Z,46.96
2023-05-10T20:22:32.806Z,47.15
2023-05-10T20:24:25.606Z,47.11
2023-05-10T20:26:18.594Z,47.11
2023-05-10T20:28:13.285Z,47.33
2023-05-10T20:30:07.089Z,47.27
2023-05-10T20:32:02.920Z,47.23
2023-05-10T20:33:56.536Z,47.17
2023-05-10T20:35:51.434Z,47.14
2023-05-10T20:37:44.311Z,47.15
2023-05-10T20:39:37.424Z,46.95
2023-05-10T20:41:30.273Z,47.18
2023-05-10T20:43:23.114Z,47.06
2023-05-10T20:45:16.269Z,47.23
2023-05-10T20:47:09.217Z,47.13
2023-05-10T20:49:02.688Z,47.23
2023-05-10T20:50:55.829Z,47.08
2023-05-10T20:52:51.107Z,47.07
2023-05-10T20:54:43.984Z,47.11
2023-05-10T20:56:36.936Z,47.17
2023-05-10T20:58:29.776Z,47.24
2023-05-10T21:00:22.743Z,47.40
2023-05-10T21:02:15.562Z,47.37
2023-05-10T21:04:08.432Z,47.46
2023-05-10T21:06:01.621Z,47.48
2023-05-10T21:07:54.513Z,47.51
2023-05-10T21:09:47.374Z,47.92
2023-05-10T21:11:40.348Z,47.95
2023-05-10T21:13:33.365Z,47.92
2023-05-10T21:15:26.621Z,48.17
2023-05-10T21:17:20.198Z,48.35
2023-05-10T21:19:13.431Z,48.44
2023-05-10T21:21:06.380Z,48.30
2023-05-10T21:22:59.347Z,48.44
2023-05-10T21:24:52.590Z,48.80
2023-05-10T21:26:45.435Z,48.62
2023-05-10T21:28:40.085Z,49.02
2023-05-10T21:30:34.090Z,49.08
2023-05-10T21:32:28.207Z,49.17
2023-05-10T21:34:24.492Z,49.19
2023-05-10T21:36:17.435Z,49.38
2023-05-10T21:38:10.575Z,49.35
2023-05-10T21:40:04.908Z,49.26
2023-05-10T21:41:59.754Z,49.23
2023-05-10T21:43:52.656Z,49.30
2023-05-10T21:45:45.559Z,49.23
2023-05-10T21:47:38.634Z,49.07
2023-05-10T21:49:31.558Z,49.46
2023-05-10T21:51:24.414Z,49.34
2023-05-10T21:53:17.252Z,49.59
2023-05-10T21:55:10.507Z,49.72
2023-05-10T21:57:03.455Z,49.85
2023-05-10T21:58:56.403Z,49.92
2023-05-10T22:00:49.757Z,49.87
2023-05-10T22:02:42.837Z,50.08
2023-05-10T22:04:35.761Z,50.01
2023-05-10T22:06:28.707Z,50.13
2023-05-10T22:08:22.407Z,50.14
2023-05-10T22:10:16.238Z,50.31
2023-05-10T22:12:09.439Z,50.43
2023-05-10T22:14:02.342Z,50.62
2023-05-10T22:15:55.123Z,50.51
2023-05-10T22:17:48.213Z,50.59
2023-05-10T22:19:41.137Z,50.71
2023-05-10T22:21:33.932Z,50.84
2023-05-10T22:23:26.885Z,50.74
2023-05-10T22:25:19.724Z,50.84
2023-05-10T22:27:12.888Z,50.97
2023-05-10T22:29:05.931Z,51.12
2023-05-10T22:30:58.777Z,51.13
2023-05-10T22:32:51.687Z,51.18
2023-05-10T22:34:44.570Z,51.37
2023-05-10T22:36:37.824Z,51.41
2023-05-10T22:38:30.671Z,51.80
2023-05-10T22:40:23.635Z,51.47
2023-05-10T22:42:16.701Z,51.97
2023-05-10T22:44:09.619Z,51.91
2023-05-10T22:46:02.504Z,51.98
2023-05-10T22:47:55.524Z,51.94
2023-05-10T22:49:48.568Z,51.92
2023-05-10T22:51:41.510Z,51.85
2023-05-10T22:53:34.463Z,51.96
2023-05-10T22:55:27.580Z,51.79
2023-05-10T22:57:20.565Z,52.24
2023-05-10T22:59:13.503Z,51.90
2023-05-10T23:01:06.355Z,52.19
2023-05-10T23:02:59.342Z,51.99
2023-05-10T23:04:52.280Z,52.33
2023-05-10T23:06:46.018Z,52.11
2023-05-10T23:08:38.863Z,52.21
2023-05-10T23:10:31.815Z,52.30
2023-05-10T23:12:25.269Z,52.35
2023-05-10T23:14:18.114Z,52.38
2023-05-10T23:16:11.002Z,52.25
2023-05-10T23:18:05.969Z,52.03
2023-05-10T23:19:59.005Z,52.26
2023-05-10T23:21:51.879Z,52.25
2023-05-10T23:23:44.810Z,52.37
2023-05-10T23:25:38.157Z,52.23
2023-05-10T23:27:31.147Z,52.18
2023-05-10T23:29:26.360Z,52.21
2023-05-10T23:31:19.408Z,52.12
2023-05-10T23:33:14.556Z,52.38
2023-05-10T23:35:08.533Z,52.22
2023-05-10T23:37:01.483Z,52.27
2023-05-10T23:38:54.325Z,52.18
2023-05-10T23:40:50.986Z,52.28
2023-05-10T23:42:43.811Z,52.13
2023-05-10T23:44:36.660Z,52.30
2023-05-10T23:46:29.502Z,52.17
2023-05-10T23:48:22.554Z,52.12
2023-05-10T23:50:15.659Z,52.09
2023-05-10T23:52:08.960Z,52.06
2023-05-10T23:54:02.194Z,52.12
2023-05-10T23:55:54.961Z,51.96
2023-05-10T23:57:47.809Z,51.90
2023-05-10T23:59:40.572Z,51.87
